sensor_id;sensor_type;location;lat;lon;timestamp;temperature;humidity
47532;DHT22;33273;52.254;7.988;2023-04-15T00:00:43;6.40;65.60
47532;DHT22;33273;52.254;7.988;2023-04-15T00:03:09;6.40;65.30
47532;DHT22;33273;52.254;7.988;2023-04-15T00:05:36;6.40;65.30
47532;DHT22;33273;52.254;7.988;2023-04-15T00:08:02;6.30;65.80
47532;DHT22;33273;52.254;7.988;2023-04-15T00:10:29;6.10;66.70
47532;DHT22;33273;52.254;7.988;2023-04-15T00:12:56;6.10;67.60
47532;DHT22;33273;52.254;7.988;2023-04-15T00:15:22;6.00;68.20
47532;DHT22;33273;52.254;7.988;2023-04-15T00:17:50;6.00;68.70
47532;DHT22;33273;52.254;7.988;2023-04-15T00:20:16;5.90;69.70
47532;DHT22;33273;52.254;7.988;2023-04-15T00:22:42;5.80;70.80
47532;DHT22;33273;52.254;7.988;2023-04-15T00:25:08;5.70;71.90
47532;DHT22;33273;52.254;7.988;2023-04-15T00:27:35;5.60;72.20
47532;DHT22;33273;52.254;7.988;2023-04-15T00:30:04;5.60;73.00
47532;DHT22;33273;52.254;7.988;2023-04-15T00:32:31;5.60;72.90
47532;DHT22;33273;52.254;7.988;2023-04-15T00:34:57;5.50;72.90
47532;DHT22;33273;52.254;7.988;2023-04-15T00:37:25;5.40;73.00
47532;DHT22;33273;52.254;7.988;2023-04-15T00:39:52;5.40;73.20
47532;DHT22;33273;52.254;7.988;2023-04-15T00:42:18;5.40;73.60
47532;DHT22;33273;52.254;7.988;2023-04-15T00:44:46;5.30;74.30
47532;DHT22;33273;52.254;7.988;2023-04-15T00:47:12;5.40;74.80
47532;DHT22;33273;52.254;7.988;2023-04-15T00:49:39;5.30;74.60
47532;DHT22;33273;52.254;7.988;2023-04-15T00:52:06;5.30;74.80
47532;DHT22;33273;52.254;7.988;2023-04-15T00:54:31;5.20;75.30
47532;DHT22;33273;52.254;7.988;2023-04-15T00:56:57;5.20;76.00
47532;DHT22;33273;52.254;7.988;2023-04-15T00:59:26;5.10;76.90
47532;DHT22;33273;52.254;7.988;2023-04-15T01:01:53;5.00;77.80
47532;DHT22;33273;52.254;7.988;2023-04-15T01:04:18;5.00;78.90
47532;DHT22;33273;52.254;7.988;2023-04-15T01:06:44;4.90;79.70
47532;DHT22;33273;52.254;7.988;2023-04-15T01:09:10;4.90;80.20
47532;DHT22;33273;52.254;7.988;2023-04-15T01:11:38;4.80;80.30
47532;DHT22;33273;52.254;7.988;2023-04-15T01:14:09;4.80;80.90
47532;DHT22;33273;52.254;7.988;2023-04-15T01:16:36;4.70;81.30
47532;DHT22;33273;52.254;7.988;2023-04-15T01:19:08;4.70;81.60
47532;DHT22;33273;52.254;7.988;2023-04-15T01:21:38;4.60;82.40
47532;DHT22;33273;52.254;7.988;2023-04-15T01:24:10;4.60;82.90
47532;DHT22;33273;52.254;7.988;2023-04-15T01:26:40;4.50;83.50
47532;DHT22;33273;52.254;7.988;2023-04-15T01:29:07;4.50;83.70
47532;DHT22;33273;52.254;7.988;2023-04-15T01:31:35;4.50;83.80
47532;DHT22;33273;52.254;7.988;2023-04-15T01:34:02;4.40;83.90
47532;DHT22;33273;52.254;7.988;2023-04-15T01:36:29;4.40;83.80
47532;DHT22;33273;52.254;7.988;2023-04-15T01:38:56;4.30;83.80
47532;DHT22;33273;52.254;7.988;2023-04-15T01:41:27;4.30;83.80
47532;DHT22;33273;52.254;7.988;2023-04-15T01:43:54;4.20;83.80
47532;DHT22;33273;52.254;7.988;2023-04-15T01:46:22;4.20;83.80
47532;DHT22;33273;52.254;7.988;2023-04-15T01:48:48;4.20;83.70
47532;DHT22;33273;52.254;7.988;2023-04-15T01:51:14;4.10;83.90
47532;DHT22;33273;52.254;7.988;2023-04-15T01:53:40;4.00;84.00
47532;DHT22;33273;52.254;7.988;2023-04-15T01:56:07;4.00;84.30
47532;DHT22;33273;52.254;7.988;2023-04-15T01:58:35;4.00;83.90
47532;DHT22;33273;52.254;7.988;2023-04-15T02:01:03;4.00;83.50
47532;DHT22;33273;52.254;7.988;2023-04-15T02:03:32;4.00;83.30
47532;DHT22;33273;52.254;7.988;2023-04-15T02:05:59;3.90;82.90
47532;DHT22;33273;52.254;7.988;2023-04-15T02:08:27;3.80;83.00
47532;DHT22;33273;52.254;7.988;2023-04-15T02:10:53;3.80;83.50
47532;DHT22;33273;52.254;7.988;2023-04-15T02:13:23;3.70;84.00
47532;DHT22;33273;52.254;7.988;2023-04-15T02:15:50;3.70;84.50
47532;DHT22;33273;52.254;7.988;2023-04-15T02:18:21;3.70;84.40
47532;DHT22;33273;52.254;7.988;2023-04-15T02:20:50;3.70;84.60
47532;DHT22;33273;52.254;7.988;2023-04-15T02:23:20;3.60;84.60
47532;DHT22;33273;52.254;7.988;2023-04-15T02:25:45;3.60;84.80
47532;DHT22;33273;52.254;7.988;2023-04-15T02:28:15;3.60;85.20
47532;DHT22;33273;52.254;7.988;2023-04-15T02:30:46;3.50;85.10
47532;DHT22;33273;52.254;7.988;2023-04-15T02:33:15;3.50;84.90
47532;DHT22;33273;52.254;7.988;2023-04-15T02:35:41;3.50;84.70
47532;DHT22;33273;52.254;7.988;2023-04-15T02:38:10;3.50;84.70
47532;DHT22;33273;52.254;7.988;2023-04-15T02:40:36;3.40;84.60
47532;DHT22;33273;52.254;7.988;2023-04-15T02:43:02;3.40;84.70
47532;DHT22;33273;52.254;7.988;2023-04-15T02:45:30;3.40;84.20
47532;DHT22;33273;52.254;7.988;2023-04-15T02:48:04;3.30;83.00
47532;DHT22;33273;52.254;7.988;2023-04-15T02:50:31;3.30;82.50
47532;DHT22;33273;52.254;7.988;2023-04-15T02:52:56;3.30;82.80
47532;DHT22;33273;52.254;7.988;2023-04-15T02:55:23;3.20;83.10
47532;DHT22;33273;52.254;7.988;2023-04-15T02:57:49;3.20;83.40
47532;DHT22;33273;52.254;7.988;2023-04-15T03:00:16;3.10;83.60
47532;DHT22;33273;52.254;7.988;2023-04-15T03:02:46;3.00;83.70
47532;DHT22;33273;52.254;7.988;2023-04-15T03:05:14;3.00;84.40
47532;DHT22;33273;52.254;7.988;2023-04-15T03:07:48;2.90;85.00
47532;DHT22;33273;52.254;7.988;2023-04-15T03:10:14;2.90;85.50
47532;DHT22;33273;52.254;7.988;2023-04-15T03:12:41;2.80;85.70
47532;DHT22;33273;52.254;7.988;2023-04-15T03:15:11;2.80;85.70
47532;DHT22;33273;52.254;7.988;2023-04-15T03:17:42;2.70;85.90
47532;DHT22;33273;52.254;7.988;2023-04-15T03:20:09;2.70;85.90
47532;DHT22;33273;52.254;7.988;2023-04-15T03:22:35;2.80;85.80
47532;DHT22;33273;52.254;7.988;2023-04-15T03:25:01;2.70;85.70
47532;DHT22;33273;52.254;7.988;2023-04-15T03:27:27;2.70;85.60
47532;DHT22;33273;52.254;7.988;2023-04-15T03:29:56;2.70;85.60
47532;DHT22;33273;52.254;7.988;2023-04-15T03:32:24;2.60;85.50
47532;DHT22;33273;52.254;7.988;2023-04-15T03:34:50;2.60;85.30
47532;DHT22;33273;52.254;7.988;2023-04-15T03:37:16;2.60;85.30
47532;DHT22;33273;52.254;7.988;2023-04-15T03:39:42;2.50;85.00
47532;DHT22;33273;52.254;7.988;2023-04-15T03:42:08;2.50;84.60
47532;DHT22;33273;52.254;7.988;2023-04-15T03:44:34;2.50;84.80
47532;DHT22;33273;52.254;7.988;2023-04-15T03:47:00;2.50;85.10
47532;DHT22;33273;52.254;7.988;2023-04-15T03:49:29;2.50;85.20
47532;DHT22;33273;52.254;7.988;2023-04-15T03:51:55;2.40;85.20
47532;DHT22;33273;52.254;7.988;2023-04-15T03:54:21;2.40;86.30
47532;DHT22;33273;52.254;7.988;2023-04-15T03:56:49;2.40;85.80
47532;DHT22;33273;52.254;7.988;2023-04-15T03:59:16;2.30;86.10
47532;DHT22;33273;52.254;7.988;2023-04-15T04:01:41;2.30;86.60
47532;DHT22;33273;52.254;7.988;2023-04-15T04:04:07;2.30;87.20
47532;DHT22;33273;52.254;7.988;2023-04-15T04:06:33;2.30;87.70
47532;DHT22;33273;52.254;7.988;2023-04-15T04:08:59;2.30;88.00
47532;DHT22;33273;52.254;7.988;2023-04-15T04:11:26;2.20;88.40
47532;DHT22;33273;52.254;7.988;2023-04-15T04:13:52;2.20;89.10
47532;DHT22;33273;52.254;7.988;2023-04-15T04:16:18;2.20;89.50
47532;DHT22;33273;52.254;7.988;2023-04-15T04:18:44;2.20;89.70
47532;DHT22;33273;52.254;7.988;2023-04-15T04:21:11;2.20;89.60
47532;DHT22;33273;52.254;7.988;2023-04-15T04:23:37;2.20;89.50
47532;DHT22;33273;52.254;7.988;2023-04-15T04:26:03;2.20;89.70
47532;DHT22;33273;52.254;7.988;2023-04-15T04:28:29;2.20;89.90
47532;DHT22;33273;52.254;7.988;2023-04-15T04:30:56;2.20;90.30
47532;DHT22;33273;52.254;7.988;2023-04-15T04:33:22;2.10;90.50
47532;DHT22;33273;52.254;7.988;2023-04-15T04:35:48;2.20;90.90
47532;DHT22;33273;52.254;7.988;2023-04-15T04:38:13;2.10;91.10
47532;DHT22;33273;52.254;7.988;2023-04-15T04:40:40;2.10;91.40
47532;DHT22;33273;52.254;7.988;2023-04-15T04:43:05;2.10;91.30
47532;DHT22;33273;52.254;7.988;2023-04-15T04:45:32;2.10;91.60
47532;DHT22;33273;52.254;7.988;2023-04-15T04:47:58;2.10;92.00
47532;DHT22;33273;52.254;7.988;2023-04-15T04:50:24;2.10;92.40
47532;DHT22;33273;52.254;7.988;2023-04-15T04:52:50;2.10;92.70
47532;DHT22;33273;52.254;7.988;2023-04-15T04:55:16;2.10;92.90
47532;DHT22;33273;52.254;7.988;2023-04-15T04:57:42;2.10;92.90
47532;DHT22;33273;52.254;7.988;2023-04-15T05:00:09;2.10;93.10
47532;DHT22;33273;52.254;7.988;2023-04-15T05:02:35;2.10;93.10
47532;DHT22;33273;52.254;7.988;2023-04-15T05:05:01;2.20;93.10
47532;DHT22;33273;52.254;7.988;2023-04-15T05:07:27;2.20;93.20
47532;DHT22;33273;52.254;7.988;2023-04-15T05:09:53;2.30;93.40
47532;DHT22;33273;52.254;7.988;2023-04-15T05:12:19;2.30;93.10
47532;DHT22;33273;52.254;7.988;2023-04-15T05:14:45;2.30;93.60
47532;DHT22;33273;52.254;7.988;2023-04-15T05:17:11;2.40;93.40
47532;DHT22;33273;52.254;7.988;2023-04-15T05:19:37;2.40;94.00
47532;DHT22;33273;52.254;7.988;2023-04-15T05:22:03;2.40;94.60
47532;DHT22;33273;52.254;7.988;2023-04-15T05:24:28;2.40;95.10
47532;DHT22;33273;52.254;7.988;2023-04-15T05:26:54;2.50;95.80
47532;DHT22;33273;52.254;7.988;2023-04-15T05:29:21;2.50;96.30
47532;DHT22;33273;52.254;7.988;2023-04-15T05:31:47;2.60;96.80
47532;DHT22;33273;52.254;7.988;2023-04-15T05:34:13;2.70;97.20
47532;DHT22;33273;52.254;7.988;2023-04-15T05:36:41;2.80;97.40
47532;DHT22;33273;52.254;7.988;2023-04-15T05:39:07;2.80;97.80
47532;DHT22;33273;52.254;7.988;2023-04-15T05:41:33;2.90;98.20
47532;DHT22;33273;52.254;7.988;2023-04-15T05:43:59;3.00;98.50
47532;DHT22;33273;52.254;7.988;2023-04-15T05:46:25;3.10;98.90
47532;DHT22;33273;52.254;7.988;2023-04-15T05:48:52;3.10;99.30
47532;DHT22;33273;52.254;7.988;2023-04-15T05:51:19;3.30;99.80
47532;DHT22;33273;52.254;7.988;2023-04-15T05:53:45;3.40;99.90
47532;DHT22;33273;52.254;7.988;2023-04-15T05:56:11;3.50;99.90
47532;DHT22;33273;52.254;7.988;2023-04-15T05:58:37;3.60;99.90
47532;DHT22;33273;52.254;7.988;2023-04-15T06:01:04;3.70;99.90
47532;DHT22;33273;52.254;7.988;2023-04-15T06:03:30;3.70;99.90
47532;DHT22;33273;52.254;7.988;2023-04-15T06:05:56;3.80;99.90
47532;DHT22;33273;52.254;7.988;2023-04-15T06:08:22;3.90;99.90
47532;DHT22;33273;52.254;7.988;2023-04-15T06:10:48;4.00;99.90
47532;DHT22;33273;52.254;7.988;2023-04-15T06:13:15;4.10;99.90
47532;DHT22;33273;52.254;7.988;2023-04-15T06:15:41;4.20;99.90
47532;DHT22;33273;52.254;7.988;2023-04-15T06:18:07;4.30;99.90
47532;DHT22;33273;52.254;7.988;2023-04-15T06:20:33;4.40;99.90
47532;DHT22;33273;52.254;7.988;2023-04-15T06:22:59;4.50;99.90
47532;DHT22;33273;52.254;7.988;2023-04-15T06:25:25;4.60;99.90
47532;DHT22;33273;52.254;7.988;2023-04-15T06:27:51;4.60;99.90
47532;DHT22;33273;52.254;7.988;2023-04-15T06:30:18;4.70;99.90
47532;DHT22;33273;52.254;7.988;2023-04-15T06:32:45;4.80;99.90
47532;DHT22;33273;52.254;7.988;2023-04-15T06:35:11;4.90;99.90
47532;DHT22;33273;52.254;7.988;2023-04-15T06:37:38;5.00;99.90
47532;DHT22;33273;52.254;7.988;2023-04-15T06:40:04;5.10;99.90
47532;DHT22;33273;52.254;7.988;2023-04-15T06:42:30;5.10;99.90
47532;DHT22;33273;52.254;7.988;2023-04-15T06:44:56;5.20;99.90
47532;DHT22;33273;52.254;7.988;2023-04-15T06:47:22;5.30;99.90
47532;DHT22;33273;52.254;7.988;2023-04-15T06:49:48;5.40;99.90
47532;DHT22;33273;52.254;7.988;2023-04-15T06:52:13;5.50;99.90
47532;DHT22;33273;52.254;7.988;2023-04-15T06:54:41;5.50;99.90
47532;DHT22;33273;52.254;7.988;2023-04-15T06:57:07;5.70;99.90
47532;DHT22;33273;52.254;7.988;2023-04-15T06:59:35;5.70;99.90
47532;DHT22;33273;52.254;7.988;2023-04-15T07:02:01;5.70;99.90
47532;DHT22;33273;52.254;7.988;2023-04-15T07:04:27;5.80;99.90
47532;DHT22;33273;52.254;7.988;2023-04-15T07:06:53;5.80;99.90
47532;DHT22;33273;52.254;7.988;2023-04-15T07:09:22;6.00;99.90
47532;DHT22;33273;52.254;7.988;2023-04-15T07:11:49;6.00;99.90
47532;DHT22;33273;52.254;7.988;2023-04-15T07:14:19;6.00;99.90
47532;DHT22;33273;52.254;7.988;2023-04-15T07:16:45;6.00;99.90
47532;DHT22;33273;52.254;7.988;2023-04-15T07:19:11;6.10;99.90
47532;DHT22;33273;52.254;7.988;2023-04-15T07:21:41;6.10;99.90
47532;DHT22;33273;52.254;7.988;2023-04-15T07:24:07;6.20;99.90
47532;DHT22;33273;52.254;7.988;2023-04-15T07:26:34;6.30;99.90
47532;DHT22;33273;52.254;7.988;2023-04-15T07:29:00;6.30;99.90
47532;DHT22;33273;52.254;7.988;2023-04-15T07:31:26;6.40;99.90
47532;DHT22;33273;52.254;7.988;2023-04-15T07:33:53;6.50;99.90
47532;DHT22;33273;52.254;7.988;2023-04-15T07:36:19;6.60;99.90
47532;DHT22;33273;52.254;7.988;2023-04-15T07:38:45;6.60;99.90
47532;DHT22;33273;52.254;7.988;2023-04-15T07:41:12;6.80;99.90
47532;DHT22;33273;52.254;7.988;2023-04-15T07:43:38;6.80;99.90
47532;DHT22;33273;52.254;7.988;2023-04-15T07:46:04;6.80;99.90
47532;DHT22;33273;52.254;7.988;2023-04-15T07:48:30;6.80;99.90
47532;DHT22;33273;52.254;7.988;2023-04-15T07:50:56;7.00;99.90
47532;DHT22;33273;52.254;7.988;2023-04-15T07:53:22;7.00;99.90
47532;DHT22;33273;52.254;7.988;2023-04-15T07:55:48;7.00;99.90
47532;DHT22;33273;52.254;7.988;2023-04-15T07:58:13;7.00;99.90
47532;DHT22;33273;52.254;7.988;2023-04-15T08:00:39;7.00;99.90
47532;DHT22;33273;52.254;7.988;2023-04-15T08:03:06;7.00;99.90
47532;DHT22;33273;52.254;7.988;2023-04-15T08:05:32;7.10;99.90
47532;DHT22;33273;52.254;7.988;2023-04-15T08:07:58;7.10;99.90
47532;DHT22;33273;52.254;7.988;2023-04-15T08:10:24;7.00;99.90
47532;DHT22;33273;52.254;7.988;2023-04-15T08:12:50;7.00;99.90
47532;DHT22;33273;52.254;7.988;2023-04-15T08:15:19;7.10;99.90
47532;DHT22;33273;52.254;7.988;2023-04-15T08:17:46;7.10;99.90
47532;DHT22;33273;52.254;7.988;2023-04-15T08:20:12;7.10;99.90
47532;DHT22;33273;52.254;7.988;2023-04-15T08:22:39;7.10;99.90
47532;DHT22;33273;52.254;7.988;2023-04-15T08:25:05;7.00;99.90
47532;DHT22;33273;52.254;7.988;2023-04-15T08:27:31;7.00;99.90
47532;DHT22;33273;52.254;7.988;2023-04-15T08:30:00;7.00;99.90
47532;DHT22;33273;52.254;7.988;2023-04-15T08:32:27;7.00;99.90
47532;DHT22;33273;52.254;7.988;2023-04-15T08:34:53;7.00;99.90
47532;DHT22;33273;52.254;7.988;2023-04-15T08:37:19;7.00;99.90
47532;DHT22;33273;52.254;7.988;2023-04-15T08:39:46;7.10;99.90
47532;DHT22;33273;52.254;7.988;2023-04-15T08:42:16;7.10;99.90
47532;DHT22;33273;52.254;7.988;2023-04-15T08:44:43;7.10;99.90
47532;DHT22;33273;52.254;7.988;2023-04-15T08:47:12;7.10;99.90
47532;DHT22;33273;52.254;7.988;2023-04-15T08:49:43;7.20;99.90
47532;DHT22;33273;52.254;7.988;2023-04-15T08:52:09;7.20;99.90
47532;DHT22;33273;52.254;7.988;2023-04-15T08:54:40;7.30;99.90
47532;DHT22;33273;52.254;7.988;2023-04-15T08:57:09;7.30;99.90
47532;DHT22;33273;52.254;7.988;2023-04-15T08:59:37;7.30;99.90
47532;DHT22;33273;52.254;7.988;2023-04-15T09:02:03;7.40;99.90
47532;DHT22;33273;52.254;7.988;2023-04-15T09:04:29;7.40;99.90
47532;DHT22;33273;52.254;7.988;2023-04-15T09:06:56;7.40;99.90
47532;DHT22;33273;52.254;7.988;2023-04-15T09:09:22;7.40;99.90
47532;DHT22;33273;52.254;7.988;2023-04-15T09:11:47;7.40;99.90
47532;DHT22;33273;52.254;7.988;2023-04-15T09:14:15;7.40;99.90
47532;DHT22;33273;52.254;7.988;2023-04-15T09:17:05;7.50;99.90
47532;DHT22;33273;52.254;7.988;2023-04-15T09:19:34;7.60;99.90
47532;DHT22;33273;52.254;7.988;2023-04-15T09:22:01;7.60;99.90
47532;DHT22;33273;52.254;7.988;2023-04-15T09:24:36;7.60;99.90
47532;DHT22;33273;52.254;7.988;2023-04-15T09:27:03;7.60;99.90
47532;DHT22;33273;52.254;7.988;2023-04-15T09:29:30;7.60;99.90
47532;DHT22;33273;52.254;7.988;2023-04-15T09:32:12;7.70;99.90
47532;DHT22;33273;52.254;7.988;2023-04-15T09:34:38;7.70;99.90
47532;DHT22;33273;52.254;7.988;2023-04-15T09:37:04;7.60;99.90
47532;DHT22;33273;52.254;7.988;2023-04-15T09:42:13;7.60;99.90
47532;DHT22;33273;52.254;7.988;2023-04-15T09:44:39;7.70;99.90
47532;DHT22;33273;52.254;7.988;2023-04-15T09:47:05;7.70;99.90
47532;DHT22;33273;52.254;7.988;2023-04-15T09:49:30;7.70;99.90
47532;DHT22;33273;52.254;7.988;2023-04-15T09:52:00;7.80;99.90
47532;DHT22;33273;52.254;7.988;2023-04-15T09:54:36;7.80;99.90
47532;DHT22;33273;52.254;7.988;2023-04-15T09:57:07;7.80;99.90
47532;DHT22;33273;52.254;7.988;2023-04-15T09:59:33;7.80;99.90
47532;DHT22;33273;52.254;7.988;2023-04-15T10:01:59;7.90;99.90
47532;DHT22;33273;52.254;7.988;2023-04-15T10:04:26;7.90;99.90
47532;DHT22;33273;52.254;7.988;2023-04-15T10:06:53;7.90;99.90
47532;DHT22;33273;52.254;7.988;2023-04-15T10:09:19;8.00;99.90
47532;DHT22;33273;52.254;7.988;2023-04-15T10:11:45;8.00;99.90
47532;DHT22;33273;52.254;7.988;2023-04-15T10:14:13;8.00;99.90
47532;DHT22;33273;52.254;7.988;2023-04-15T10:16:40;8.00;99.90
47532;DHT22;33273;52.254;7.988;2023-04-15T10:19:08;8.00;99.90
47532;DHT22;33273;52.254;7.988;2023-04-15T10:21:36;8.10;99.90
47532;DHT22;33273;52.254;7.988;2023-04-15T10:24:02;8.00;99.90
47532;DHT22;33273;52.254;7.988;2023-04-15T10:26:29;8.00;99.90
47532;DHT22;33273;52.254;7.988;2023-04-15T10:28:55;8.00;99.90
47532;DHT22;33273;52.254;7.988;2023-04-15T10:31:22;8.10;99.90
47532;DHT22;33273;52.254;7.988;2023-04-15T10:33:48;8.10;99.90
47532;DHT22;33273;52.254;7.988;2023-04-15T10:36:15;8.20;99.90
47532;DHT22;33273;52.254;7.988;2023-04-15T10:38:45;8.10;99.90
47532;DHT22;33273;52.254;7.988;2023-04-15T10:41:25;8.10;99.90
47532;DHT22;33273;52.254;7.988;2023-04-15T10:43:54;8.10;99.90
47532;DHT22;33273;52.254;7.988;2023-04-15T10:46:24;8.20;99.90
47532;DHT22;33273;52.254;7.988;2023-04-15T10:49:16;8.10;99.90
47532;DHT22;33273;52.254;7.988;2023-04-15T10:51:50;8.10;99.90
47532;DHT22;33273;52.254;7.988;2023-04-15T11:02:03;8.30;99.90
47532;DHT22;33273;52.254;7.988;2023-04-15T11:04:54;8.30;99.90
47532;DHT22;33273;52.254;7.988;2023-04-15T11:09:58;8.30;99.90
47532;DHT22;33273;52.254;7.988;2023-04-15T11:12:34;8.40;99.90
47532;DHT22;33273;52.254;7.988;2023-04-15T11:15:38;8.40;99.90
47532;DHT22;33273;52.254;7.988;2023-04-15T11:20:38;8.40;99.90
47532;DHT22;33273;52.254;7.988;2023-04-15T11:23:04;8.40;99.90
47532;DHT22;33273;52.254;7.988;2023-04-15T11:25:32;8.40;99.90
47532;DHT22;33273;52.254;7.988;2023-04-15T11:27:59;8.40;99.90
47532;DHT22;33273;52.254;7.988;2023-04-15T11:30:30;8.40;99.90
47532;DHT22;33273;52.254;7.988;2023-04-15T11:32:58;8.40;99.90
47532;DHT22;33273;52.254;7.988;2023-04-15T11:35:25;8.40;99.90
47532;DHT22;33273;52.254;7.988;2023-04-15T11:37:52;8.40;99.90
47532;DHT22;33273;52.254;7.988;2023-04-15T11:40:23;8.40;99.90
47532;DHT22;33273;52.254;7.988;2023-04-15T11:43:12;8.40;99.90
47532;DHT22;33273;52.254;7.988;2023-04-15T11:45:46;8.40;99.90
47532;DHT22;33273;52.254;7.988;2023-04-15T11:48:15;8.40;99.90
47532;DHT22;33273;52.254;7.988;2023-04-15T11:50:41;8.40;99.90
47532;DHT22;33273;52.254;7.988;2023-04-15T11:53:12;8.40;99.90
47532;DHT22;33273;52.254;7.988;2023-04-15T11:55:47;8.50;99.90
47532;DHT22;33273;52.254;7.988;2023-04-15T11:58:18;8.40;99.90
47532;DHT22;33273;52.254;7.988;2023-04-15T12:00:53;8.50;99.90
47532;DHT22;33273;52.254;7.988;2023-04-15T12:03:27;8.40;99.90
47532;DHT22;33273;52.254;7.988;2023-04-15T12:14:08;8.40;99.90
47532;DHT22;33273;52.254;7.988;2023-04-15T12:16:43;8.40;99.90
47532;DHT22;33273;52.254;7.988;2023-04-15T12:19:12;8.40;99.90
47532;DHT22;33273;52.254;7.988;2023-04-15T12:21:43;8.50;99.90
47532;DHT22;33273;52.254;7.988;2023-04-15T12:24:10;8.40;99.90
47532;DHT22;33273;52.254;7.988;2023-04-15T12:26:54;8.40;99.90
47532;DHT22;33273;52.254;7.988;2023-04-15T12:29:27;8.40;99.90
47532;DHT22;33273;52.254;7.988;2023-04-15T12:34:27;8.40;99.90
47532;DHT22;33273;52.254;7.988;2023-04-15T12:36:54;8.50;99.90
47532;DHT22;33273;52.254;7.988;2023-04-15T12:39:21;8.40;99.90
47532;DHT22;33273;52.254;7.988;2023-04-15T12:41:47;8.40;99.90
47532;DHT22;33273;52.254;7.988;2023-04-15T12:44:13;8.40;99.90
47532;DHT22;33273;52.254;7.988;2023-04-15T12:46:39;8.40;99.90
47532;DHT22;33273;52.254;7.988;2023-04-15T12:49:05;8.40;99.90
47532;DHT22;33273;52.254;7.988;2023-04-15T12:51:31;8.30;99.90
47532;DHT22;33273;52.254;7.988;2023-04-15T12:53:57;8.30;99.90
47532;DHT22;33273;52.254;7.988;2023-04-15T12:56:23;8.30;99.90
47532;DHT22;33273;52.254;7.988;2023-04-15T12:58:49;8.30;99.90
47532;DHT22;33273;52.254;7.988;2023-04-15T13:01:22;8.30;99.90
47532;DHT22;33273;52.254;7.988;2023-04-15T13:03:47;8.30;99.90
47532;DHT22;33273;52.254;7.988;2023-04-15T13:06:15;8.30;99.90
47532;DHT22;33273;52.254;7.988;2023-04-15T13:08:42;8.30;99.90
47532;DHT22;33273;52.254;7.988;2023-04-15T13:11:08;8.20;99.90
47532;DHT22;33273;52.254;7.988;2023-04-15T13:13:34;8.20;99.90
47532;DHT22;33273;52.254;7.988;2023-04-15T13:16:00;8.10;99.90
47532;DHT22;33273;52.254;7.988;2023-04-15T13:18:26;8.10;99.90
47532;DHT22;33273;52.254;7.988;2023-04-15T13:20:53;8.10;99.90
47532;DHT22;33273;52.254;7.988;2023-04-15T13:23:19;8.10;99.90
47532;DHT22;33273;52.254;7.988;2023-04-15T13:25:45;8.10;99.90
47532;DHT22;33273;52.254;7.988;2023-04-15T13:28:11;8.10;99.90
47532;DHT22;33273;52.254;7.988;2023-04-15T13:30:37;8.10;99.90
47532;DHT22;33273;52.254;7.988;2023-04-15T13:33:04;8.20;99.90
47532;DHT22;33273;52.254;7.988;2023-04-15T13:35:31;8.10;99.90
47532;DHT22;33273;52.254;7.988;2023-04-15T13:37:57;8.10;99.90
47532;DHT22;33273;52.254;7.988;2023-04-15T13:40:23;8.10;99.90
47532;DHT22;33273;52.254;7.988;2023-04-15T13:42:51;8.10;99.90
47532;DHT22;33273;52.254;7.988;2023-04-15T13:45:23;8.10;99.90
47532;DHT22;33273;52.254;7.988;2023-04-15T13:47:49;8.00;99.90
47532;DHT22;33273;52.254;7.988;2023-04-15T13:50:15;8.10;99.90
47532;DHT22;33273;52.254;7.988;2023-04-15T13:52:41;8.20;99.90
47532;DHT22;33273;52.254;7.988;2023-04-15T13:55:07;8.10;99.90
47532;DHT22;33273;52.254;7.988;2023-04-15T13:57:33;8.10;99.90
47532;DHT22;33273;52.254;7.988;2023-04-15T13:59:59;8.10;99.90
47532;DHT22;33273;52.254;7.988;2023-04-15T14:02:25;8.10;99.90
47532;DHT22;33273;52.254;7.988;2023-04-15T14:04:51;8.10;99.90
47532;DHT22;33273;52.254;7.988;2023-04-15T14:07:17;8.10;99.90
47532;DHT22;33273;52.254;7.988;2023-04-15T14:09:43;8.10;99.90
47532;DHT22;33273;52.254;7.988;2023-04-15T14:12:09;8.10;99.90
47532;DHT22;33273;52.254;7.988;2023-04-15T14:14:35;8.10;99.90
47532;DHT22;33273;52.254;7.988;2023-04-15T14:17:02;8.20;99.90
47532;DHT22;33273;52.254;7.988;2023-04-15T14:19:30;8.20;99.90
47532;DHT22;33273;52.254;7.988;2023-04-15T14:21:56;8.20;99.90
47532;DHT22;33273;52.254;7.988;2023-04-15T14:24:21;8.10;99.90
47532;DHT22;33273;52.254;7.988;2023-04-15T14:26:47;8.10;99.90
47532;DHT22;33273;52.254;7.988;2023-04-15T14:29:13;8.20;99.90
47532;DHT22;33273;52.254;7.988;2023-04-15T14:31:39;8.20;99.90
47532;DHT22;33273;52.254;7.988;2023-04-15T14:34:05;8.20;99.90
47532;DHT22;33273;52.254;7.988;2023-04-15T14:36:31;8.20;99.90
47532;DHT22;33273;52.254;7.988;2023-04-15T14:38:57;8.10;99.90
47532;DHT22;33273;52.254;7.988;2023-04-15T14:41:23;8.20;99.90
47532;DHT22;33273;52.254;7.988;2023-04-15T14:43:49;8.10;99.90
47532;DHT22;33273;52.254;7.988;2023-04-15T14:46:15;8.10;99.90
47532;DHT22;33273;52.254;7.988;2023-04-15T14:48:41;8.10;99.90
47532;DHT22;33273;52.254;7.988;2023-04-15T14:51:07;8.10;99.90
47532;DHT22;33273;52.254;7.988;2023-04-15T14:53:33;8.10;99.90
47532;DHT22;33273;52.254;7.988;2023-04-15T14:55:59;8.10;99.90
47532;DHT22;33273;52.254;7.988;2023-04-15T14:58:26;8.10;99.90
47532;DHT22;33273;52.254;7.988;2023-04-15T15:00:52;8.10;99.90
47532;DHT22;33273;52.254;7.988;2023-04-15T15:03:19;8.10;99.90
47532;DHT22;33273;52.254;7.988;2023-04-15T15:05:45;8.10;99.90
47532;DHT22;33273;52.254;7.988;2023-04-15T15:08:13;8.10;99.90
47532;DHT22;33273;52.254;7.988;2023-04-15T15:10:39;8.10;99.90
47532;DHT22;33273;52.254;7.988;2023-04-15T15:13:07;8.10;99.90
47532;DHT22;33273;52.254;7.988;2023-04-15T15:15:37;8.10;99.90
47532;DHT22;33273;52.254;7.988;2023-04-15T15:18:03;8.10;99.90
47532;DHT22;33273;52.254;7.988;2023-04-15T15:20:30;8.20;99.90
47532;DHT22;33273;52.254;7.988;2023-04-15T15:22:56;8.10;99.90
47532;DHT22;33273;52.254;7.988;2023-04-15T15:25:22;8.20;99.90
47532;DHT22;33273;52.254;7.988;2023-04-15T15:27:48;8.10;99.90
47532;DHT22;33273;52.254;7.988;2023-04-15T15:30:13;8.20;99.90
47532;DHT22;33273;52.254;7.988;2023-04-15T15:32:42;8.20;99.90
47532;DHT22;33273;52.254;7.988;2023-04-15T15:35:08;8.30;99.90
47532;DHT22;33273;52.254;7.988;2023-04-15T15:37:35;8.20;99.90
47532;DHT22;33273;52.254;7.988;2023-04-15T15:40:05;8.20;99.90
47532;DHT22;33273;52.254;7.988;2023-04-15T15:42:33;8.20;99.90
47532;DHT22;33273;52.254;7.988;2023-04-15T15:44:59;8.20;99.90
47532;DHT22;33273;52.254;7.988;2023-04-15T15:47:25;8.20;99.90
47532;DHT22;33273;52.254;7.988;2023-04-15T15:49:52;8.20;99.90
47532;DHT22;33273;52.254;7.988;2023-04-15T15:52:18;8.20;99.90
47532;DHT22;33273;52.254;7.988;2023-04-15T15:54:44;8.20;99.90
47532;DHT22;33273;52.254;7.988;2023-04-15T15:57:10;8.10;99.90
47532;DHT22;33273;52.254;7.988;2023-04-15T15:59:36;8.20;99.90
47532;DHT22;33273;52.254;7.988;2023-04-15T16:02:11;8.20;99.90
47532;DHT22;33273;52.254;7.988;2023-04-15T16:04:38;8.10;99.90
47532;DHT22;33273;52.254;7.988;2023-04-15T16:07:05;8.10;99.90
47532;DHT22;33273;52.254;7.988;2023-04-15T16:09:31;8.10;99.90
47532;DHT22;33273;52.254;7.988;2023-04-15T16:11:57;8.10;99.90